sensor_id;sensor_type;location;lat;lon;timestamp;P1;durP1;ratioP1;P2;durP2;ratioP2
8568;SDS011;4322;51.104;-4.162;2023-02-15T00:00:38;6.67;;;6.37;;
8568;SDS011;4322;51.104;-4.162;2023-02-15T00:03:08;7.60;;;7.30;;
8568;SDS011;4322;51.104;-4.162;2023-02-15T00:05:35;7.73;;;7.40;;
8568;SDS011;4322;51.104;-4.162;2023-02-15T00:08:03;8.23;;;7.83;;
8568;SDS011;4322;51.104;-4.162;2023-02-15T00:10:31;8.93;;;8.53;;
8568;SDS011;4322;51.104;-4.162;2023-02-15T00:12:59;9.23;;;8.83;;
8568;SDS011;4322;51.104;-4.162;2023-02-15T00:15:27;10.73;;;10.23;;
8568;SDS011;4322;51.104;-4.162;2023-02-15T00:17:57;10.30;;;9.80;;
8568;SDS011;4322;51.104;-4.162;2023-02-15T00:20:25;11.37;;;10.80;;
8568;SDS011;4322;51.104;-4.162;2023-02-15T00:22:53;12.23;;;11.63;;
8568;SDS011;4322;51.104;-4.162;2023-02-15T00:25:20;11.67;;;11.07;;
8568;SDS011;4322;51.104;-4.162;2023-02-15T00:27:50;12.20;;;11.60;;
8568;SDS011;4322;51.104;-4.162;2023-02-15T00:30:18;12.77;;;12.17;;
8568;SDS011;4322;51.104;-4.162;2023-02-15T00:32:47;12.73;;;12.13;;
8568;SDS011;4322;51.104;-4.162;2023-02-15T00:35:16;13.43;;;12.73;;
8568;SDS011;4322;51.104;-4.162;2023-02-15T00:37:44;13.43;;;12.73;;
8568;SDS011;4322;51.104;-4.162;2023-02-15T00:40:12;12.33;;;11.73;;
8568;SDS011;4322;51.104;-4.162;2023-02-15T00:42:40;13.60;;;12.90;;
8568;SDS011;4322;51.104;-4.162;2023-02-15T00:45:08;13.57;;;12.87;;
8568;SDS011;4322;51.104;-4.162;2023-02-15T00:47:36;13.77;;;13.07;;
8568;SDS011;4322;51.104;-4.162;2023-02-15T00:50:04;14.43;;;13.73;;
8568;SDS011;4322;51.104;-4.162;2023-02-15T00:52:36;14.97;;;14.17;;
8568;SDS011;4322;51.104;-4.162;2023-02-15T00:55:04;14.83;;;14.03;;
8568;SDS011;4322;51.104;-4.162;2023-02-15T00:57:32;14.97;;;14.17;;
8568;SDS011;4322;51.104;-4.162;2023-02-15T01:00:00;14.77;;;14.00;;
8568;SDS011;4322;51.104;-4.162;2023-02-15T01:02:28;14.83;;;14.03;;
8568;SDS011;4322;51.104;-4.162;2023-02-15T01:04:56;15.07;;;14.27;;
8568;SDS011;4322;51.104;-4.162;2023-02-15T01:07:24;15.03;;;14.23;;
8568;SDS011;4322;51.104;-4.162;2023-02-15T01:09:53;14.73;;;13.97;;
8568;SDS011;4322;51.104;-4.162;2023-02-15T01:12:24;15.57;;;14.77;;
8568;SDS011;4322;51.104;-4.162;2023-02-15T01:14:52;16.07;;;15.27;;
8568;SDS011;4322;51.104;-4.162;2023-02-15T01:17:20;15.83;;;15.03;;
8568;SDS011;4322;51.104;-4.162;2023-02-15T01:19:47;16.00;;;15.20;;
8568;SDS011;4322;51.104;-4.162;2023-02-15T01:22:15;16.27;;;15.47;;
8568;SDS011;4322;51.104;-4.162;2023-02-15T01:24:43;16.87;;;15.97;;
8568;SDS011;4322;51.104;-4.162;2023-02-15T01:27:12;17.10;;;16.20;;
8568;SDS011;4322;51.104;-4.162;2023-02-15T01:29:40;17.57;;;16.67;;
8568;SDS011;4322;51.104;-4.162;2023-02-15T01:32:08;16.60;;;15.70;;
8568;SDS011;4322;51.104;-4.162;2023-02-15T01:34:37;16.53;;;15.63;;
8568;SDS011;4322;51.104;-4.162;2023-02-15T01:37:05;15.97;;;15.17;;
8568;SDS011;4322;51.104;-4.162;2023-02-15T01:39:33;15.63;;;14.83;;
8568;SDS011;4322;51.104;-4.162;2023-02-15T01:42:01;15.83;;;15.03;;
8568;SDS011;4322;51.104;-4.162;2023-02-15T01:47:20;15.73;;;14.93;;
8568;SDS011;4322;51.104;-4.162;2023-02-15T01:49:50;15.43;;;14.63;;
8568;SDS011;4322;51.104;-4.162;2023-02-15T01:52:20;15.97;;;15.17;;
8568;SDS011;4322;51.104;-4.162;2023-02-15T01:54:48;15.50;;;14.70;;
8568;SDS011;4322;51.104;-4.162;2023-02-15T01:57:16;15.17;;;14.37;;
8568;SDS011;4322;51.104;-4.162;2023-02-15T01:59:46;14.87;;;14.07;;
8568;SDS011;4322;51.104;-4.162;2023-02-15T02:02:19;15.03;;;14.23;;
8568;SDS011;4322;51.104;-4.162;2023-02-15T02:04:51;14.73;;;13.93;;
8568;SDS011;4322;51.104;-4.162;2023-02-15T02:07:24;15.07;;;14.27;;
8568;SDS011;4322;51.104;-4.162;2023-02-15T02:09:53;15.50;;;14.70;;
8568;SDS011;4322;51.104;-4.162;2023-02-15T02:12:21;14.50;;;13.80;;
8568;SDS011;4322;51.104;-4.162;2023-02-15T02:14:49;14.07;;;13.37;;
8568;SDS011;4322;51.104;-4.162;2023-02-15T02:17:23;14.13;;;13.43;;
8568;SDS011;4322;51.104;-4.162;2023-02-15T02:20:13;14.30;;;13.60;;
8568;SDS011;4322;51.104;-4.162;2023-02-15T02:25:40;14.97;;;14.17;;
8568;SDS011;4322;51.104;-4.162;2023-02-15T02:28:22;13.60;;;12.90;;
8568;SDS011;4322;51.104;-4.162;2023-02-15T02:31:03;14.03;;;13.33;;
8568;SDS011;4322;51.104;-4.162;2023-02-15T02:33:41;14.03;;;13.33;;
8568;SDS011;4322;51.104;-4.162;2023-02-15T02:36:15;14.60;;;13.87;;
8568;SDS011;4322;51.104;-4.162;2023-02-15T02:38:47;14.03;;;13.33;;
8568;SDS011;4322;51.104;-4.162;2023-02-15T02:41:17;14.27;;;13.57;;
8568;SDS011;4322;51.104;-4.162;2023-02-15T02:43:49;14.07;;;13.37;;
8568;SDS011;4322;51.104;-4.162;2023-02-15T02:46:22;13.90;;;13.20;;
8568;SDS011;4322;51.104;-4.162;2023-02-15T02:48:53;13.47;;;12.77;;
8568;SDS011;4322;51.104;-4.162;2023-02-15T02:51:21;14.37;;;13.67;;
8568;SDS011;4322;51.104;-4.162;2023-02-15T02:53:51;14.70;;;14.00;;
8568;SDS011;4322;51.104;-4.162;2023-02-15T02:56:21;14.20;;;13.50;;
8568;SDS011;4322;51.104;-4.162;2023-02-15T02:58:50;13.73;;;13.03;;
8568;SDS011;4322;51.104;-4.162;2023-02-15T03:01:20;12.40;;;11.80;;
8568;SDS011;4322;51.104;-4.162;2023-02-15T03:03:52;12.27;;;11.67;;
8568;SDS011;4322;51.104;-4.162;2023-02-15T03:06:24;12.30;;;11.70;;
8568;SDS011;4322;51.104;-4.162;2023-02-15T03:08:54;13.03;;;12.33;;
8568;SDS011;4322;51.104;-4.162;2023-02-15T03:11:25;13.53;;;12.83;;
8568;SDS011;4322;51.104;-4.162;2023-02-15T03:13:53;12.63;;;12.03;;
8568;SDS011;4322;51.104;-4.162;2023-02-15T03:16:23;12.50;;;11.90;;
8568;SDS011;4322;51.104;-4.162;2023-02-15T03:18:57;12.77;;;12.17;;
8568;SDS011;4322;51.104;-4.162;2023-02-15T03:21:29;12.57;;;11.97;;
8568;SDS011;4322;51.104;-4.162;2023-02-15T03:23:59;12.17;;;11.57;;
8568;SDS011;4322;51.104;-4.162;2023-02-15T03:26:27;12.73;;;12.13;;
8568;SDS011;4322;51.104;-4.162;2023-02-15T03:28:56;13.23;;;12.53;;
8568;SDS011;4322;51.104;-4.162;2023-02-15T03:31:26;13.17;;;12.47;;
8568;SDS011;4322;51.104;-4.162;2023-02-15T03:33:58;12.63;;;12.03;;
8568;SDS011;4322;51.104;-4.162;2023-02-15T03:36:28;13.03;;;12.33;;
8568;SDS011;4322;51.104;-4.162;2023-02-15T03:38:59;12.50;;;11.90;;
8568;SDS011;4322;51.104;-4.162;2023-02-15T03:41:29;12.57;;;11.97;;
8568;SDS011;4322;51.104;-4.162;2023-02-15T03:44:03;11.83;;;11.23;;
8568;SDS011;4322;51.104;-4.162;2023-02-15T03:46:32;13.33;;;12.63;;
8568;SDS011;4322;51.104;-4.162;2023-02-15T03:49:03;12.20;;;11.60;;
8568;SDS011;4322;51.104;-4.162;2023-02-15T03:51:34;12.47;;;11.87;;
8568;SDS011;4322;51.104;-4.162;2023-02-15T03:54:03;12.63;;;12.03;;
8568;SDS011;4322;51.104;-4.162;2023-02-15T03:56:35;12.13;;;11.53;;
8568;SDS011;4322;51.104;-4.162;2023-02-15T03:59:04;12.67;;;12.07;;
8568;SDS011;4322;51.104;-4.162;2023-02-15T04:01:53;12.37;;;11.77;;
8568;SDS011;4322;51.104;-4.162;2023-02-15T04:04:27;12.27;;;11.67;;
8568;SDS011;4322;51.104;-4.162;2023-02-15T04:06:56;12.40;;;11.80;;
8568;SDS011;4322;51.104;-4.162;2023-02-15T04:09:23;12.50;;;11.90;;
8568;SDS011;4322;51.104;-4.162;2023-02-15T04:12:09;12.30;;;11.70;;
8568;SDS011;4322;51.104;-4.162;2023-02-15T04:14:37;12.27;;;11.67;;
8568;SDS011;4322;51.104;-4.162;2023-02-15T04:17:22;11.90;;;11.30;;
8568;SDS011;4322;51.104;-4.162;2023-02-15T04:19:51;12.27;;;11.67;;
8568;SDS011;4322;51.104;-4.162;2023-02-15T04:22:36;11.57;;;10.97;;
8568;SDS011;4322;51.104;-4.162;2023-02-15T04:25:22;11.83;;;11.23;;
8568;SDS011;4322;51.104;-4.162;2023-02-15T04:27:50;11.77;;;11.17;;
8568;SDS011;4322;51.104;-4.162;2023-02-15T04:30:19;12.50;;;11.90;;
8568;SDS011;4322;51.104;-4.162;2023-02-15T04:32:48;11.97;;;11.37;;
8568;SDS011;4322;51.104;-4.162;2023-02-15T04:35:20;11.70;;;11.10;;
8568;SDS011;4322;51.104;-4.162;2023-02-15T04:37:50;12.00;;;11.40;;
8568;SDS011;4322;51.104;-4.162;2023-02-15T04:40:18;11.90;;;11.30;;
8568;SDS011;4322;51.104;-4.162;2023-02-15T04:42:53;12.00;;;11.40;;
8568;SDS011;4322;51.104;-4.162;2023-02-15T04:45:21;12.00;;;11.40;;
8568;SDS011;4322;51.104;-4.162;2023-02-15T04:47:49;11.07;;;10.57;;
8568;SDS011;4322;51.104;-4.162;2023-02-15T04:50:17;11.90;;;11.30;;
8568;SDS011;4322;51.104;-4.162;2023-02-15T04:52:46;12.37;;;11.77;;
8568;SDS011;4322;51.104;-4.162;2023-02-15T04:55:15;12.37;;;11.77;;
8568;SDS011;4322;51.104;-4.162;2023-02-15T04:57:44;11.17;;;10.67;;
8568;SDS011;4322;51.104;-4.162;2023-02-15T05:00:11;11.60;;;11.00;;
8568;SDS011;4322;51.104;-4.162;2023-02-15T05:02:39;11.80;;;11.20;;
8568;SDS011;4322;51.104;-4.162;2023-02-15T05:05:07;11.17;;;10.63;;
8568;SDS011;4322;51.104;-4.162;2023-02-15T05:07:39;11.40;;;10.80;;
8568;SDS011;4322;51.104;-4.162;2023-02-15T05:10:09;10.87;;;10.37;;
8568;SDS011;4322;51.104;-4.162;2023-02-15T05:12:39;11.43;;;10.83;;
8568;SDS011;4322;51.104;-4.162;2023-02-15T05:15:07;11.40;;;10.80;;
8568;SDS011;4322;51.104;-4.162;2023-02-15T05:17:36;11.50;;;10.90;;
8568;SDS011;4322;51.104;-4.162;2023-02-15T05:20:04;11.07;;;10.57;;
8568;SDS011;4322;51.104;-4.162;2023-02-15T05:22:32;11.87;;;11.27;;
8568;SDS011;4322;51.104;-4.162;2023-02-15T05:25:00;11.03;;;10.53;;
8568;SDS011;4322;51.104;-4.162;2023-02-15T05:27:47;10.90;;;10.40;;
8568;SDS011;4322;51.104;-4.162;2023-02-15T05:30:35;11.30;;;10.73;;
8568;SDS011;4322;51.104;-4.162;2023-02-15T05:33:03;12.13;;;11.53;;
8568;SDS011;4322;51.104;-4.162;2023-02-15T05:35:31;10.77;;;10.27;;
8568;SDS011;4322;51.104;-4.162;2023-02-15T05:37:59;11.10;;;10.60;;
8568;SDS011;4322;51.104;-4.162;2023-02-15T05:40:27;11.57;;;10.97;;
8568;SDS011;4322;51.104;-4.162;2023-02-15T05:42:56;10.67;;;10.17;;
8568;SDS011;4322;51.104;-4.162;2023-02-15T05:45:24;11.73;;;11.13;;
8568;SDS011;4322;51.104;-4.162;2023-02-15T05:47:56;10.80;;;10.30;;
8568;SDS011;4322;51.104;-4.162;2023-02-15T05:50:24;10.70;;;10.20;;
8568;SDS011;4322;51.104;-4.162;2023-02-15T05:52:52;10.37;;;9.87;;
8568;SDS011;4322;51.104;-4.162;2023-02-15T05:55:20;10.93;;;10.43;;
8568;SDS011;4322;51.104;-4.162;2023-02-15T05:57:48;10.67;;;10.17;;
8568;SDS011;4322;51.104;-4.162;2023-02-15T06:00:18;10.83;;;10.33;;
8568;SDS011;4322;51.104;-4.162;2023-02-15T06:02:46;11.67;;;11.07;;
8568;SDS011;4322;51.104;-4.162;2023-02-15T06:05:14;11.13;;;10.63;;
8568;SDS011;4322;51.104;-4.162;2023-02-15T06:07:42;11.90;;;11.30;;
8568;SDS011;4322;51.104;-4.162;2023-02-15T06:10:11;12.10;;;11.50;;
8568;SDS011;4322;51.104;-4.162;2023-02-15T06:12:38;11.80;;;11.20;;
8568;SDS011;4322;51.104;-4.162;2023-02-15T06:15:07;11.80;;;11.20;;
8568;SDS011;4322;51.104;-4.162;2023-02-15T06:17:36;10.57;;;10.07;;
8568;SDS011;4322;51.104;-4.162;2023-02-15T06:20:04;11.50;;;10.90;;
8568;SDS011;4322;51.104;-4.162;2023-02-15T06:22:32;11.63;;;11.03;;
8568;SDS011;4322;51.104;-4.162;2023-02-15T06:25:00;11.50;;;10.90;;
8568;SDS011;4322;51.104;-4.162;2023-02-15T06:27:28;11.23;;;10.67;;
8568;SDS011;4322;51.104;-4.162;2023-02-15T06:29:56;11.30;;;10.73;;
8568;SDS011;4322;51.104;-4.162;2023-02-15T06:32:24;12.00;;;11.40;;
8568;SDS011;4322;51.104;-4.162;2023-02-15T06:34:55;11.87;;;11.27;;
8568;SDS011;4322;51.104;-4.162;2023-02-15T06:37:23;11.00;;;10.50;;
8568;SDS011;4322;51.104;-4.162;2023-02-15T06:39:53;10.87;;;10.37;;
8568;SDS011;4322;51.104;-4.162;2023-02-15T06:42:22;11.07;;;10.57;;
8568;SDS011;4322;51.104;-4.162;2023-02-15T06:44:50;10.37;;;9.87;;
8568;SDS011;4322;51.104;-4.162;2023-02-15T06:47:18;10.20;;;9.70;;
8568;SDS011;4322;51.104;-4.162;2023-02-15T06:49:46;9.63;;;9.13;;
8568;SDS011;4322;51.104;-4.162;2023-02-15T06:52:15;9.90;;;9.40;;
8568;SDS011;4322;51.104;-4.162;2023-02-15T06:54:44;9.87;;;9.37;;
8568;SDS011;4322;51.104;-4.162;2023-02-15T06:57:12;10.03;;;9.53;;
8568;SDS011;4322;51.104;-4.162;2023-02-15T06:59:40;9.80;;;9.30;;
8568;SDS011;4322;51.104;-4.162;2023-02-15T07:02:08;10.27;;;9.77;;
8568;SDS011;4322;51.104;-4.162;2023-02-15T07:04:36;9.63;;;9.13;;
8568;SDS011;4322;51.104;-4.162;2023-02-15T07:07:07;10.03;;;9.53;;
8568;SDS011;4322;51.104;-4.162;2023-02-15T07:09:38;10.93;;;10.43;;
8568;SDS011;4322;51.104;-4.162;2023-02-15T07:12:06;11.17;;;10.60;;
8568;SDS011;4322;51.104;-4.162;2023-02-15T07:14:52;10.10;;;9.60;;
8568;SDS011;4322;51.104;-4.162;2023-02-15T07:17:20;9.87;;;9.37;;
8568;SDS011;4322;51.104;-4.162;2023-02-15T07:20:03;9.97;;;9.47;;
8568;SDS011;4322;51.104;-4.162;2023-02-15T07:22:31;10.20;;;9.70;;
8568;SDS011;4322;51.104;-4.162;2023-02-15T07:25:02;10.73;;;10.23;;
8568;SDS011;4322;51.104;-4.162;2023-02-15T07:27:30;9.40;;;9.00;;
8568;SDS011;4322;51.104;-4.162;2023-02-15T07:29:58;9.30;;;8.90;;
8568;SDS011;4322;51.104;-4.162;2023-02-15T07:32:27;8.80;;;8.40;;
8568;SDS011;4322;51.104;-4.162;2023-02-15T07:34:55;7.87;;;7.47;;
8568;SDS011;4322;51.104;-4.162;2023-02-15T07:37:22;7.97;;;7.57;;
8568;SDS011;4322;51.104;-4.162;2023-02-15T07:39:53;9.50;;;9.00;;
8568;SDS011;4322;51.104;-4.162;2023-02-15T07:42:25;9.57;;;9.07;;
8568;SDS011;4322;51.104;-4.162;2023-02-15T07:45:00;9.40;;;9.00;;
8568;SDS011;4322;51.104;-4.162;2023-02-15T07:47:28;9.33;;;8.93;;
8568;SDS011;4322;51.104;-4.162;2023-02-15T07:49:56;9.63;;;9.13;;
8568;SDS011;4322;51.104;-4.162;2023-02-15T07:52:25;9.63;;;9.13;;
8568;SDS011;4322;51.104;-4.162;2023-02-15T07:54:53;9.83;;;9.33;;
8568;SDS011;4322;51.104;-4.162;2023-02-15T07:57:21;10.00;;;9.50;;
8568;SDS011;4322;51.104;-4.162;2023-02-15T07:59:51;10.17;;;9.67;;
8568;SDS011;4322;51.104;-4.162;2023-02-15T08:02:18;9.93;;;9.43;;
8568;SDS011;4322;51.104;-4.162;2023-02-15T08:04:46;9.67;;;9.17;;
8568;SDS011;4322;51.104;-4.162;2023-02-15T08:07:15;9.70;;;9.20;;
8568;SDS011;4322;51.104;-4.162;2023-02-15T08:09:43;10.50;;;10.00;;
8568;SDS011;4322;51.104;-4.162;2023-02-15T08:12:11;9.23;;;8.83;;
8568;SDS011;4322;51.104;-4.162;2023-02-15T08:14:39;9.53;;;9.03;;
8568;SDS011;4322;51.104;-4.162;2023-02-15T08:17:08;9.67;;;9.17;;
8568;SDS011;4322;51.104;-4.162;2023-02-15T08:19:37;9.80;;;9.30;;
8568;SDS011;4322;51.104;-4.162;2023-02-15T08:22:06;9.60;;;9.10;;
8568;SDS011;4322;51.104;-4.162;2023-02-15T08:24:36;10.00;;;9.50;;
8568;SDS011;4322;51.104;-4.162;2023-02-15T08:27:04;9.27;;;8.87;;
8568;SDS011;4322;51.104;-4.162;2023-02-15T08:29:33;9.80;;;9.30;;
8568;SDS011;4322;51.104;-4.162;2023-02-15T08:32:05;10.10;;;9.60;;
8568;SDS011;4322;51.104;-4.162;2023-02-15T08:34:36;9.53;;;9.03;;
8568;SDS011;4322;51.104;-4.162;2023-02-15T08:37:08;9.70;;;9.20;;
8568;SDS011;4322;51.104;-4.162;2023-02-15T08:39:36;8.83;;;8.43;;
8568;SDS011;4322;51.104;-4.162;2023-02-15T08:42:04;10.00;;;9.50;;
8568;SDS011;4322;51.104;-4.162;2023-02-15T08:44:32;9.60;;;9.10;;
8568;SDS011;4322;51.104;-4.162;2023-02-15T08:46:59;10.03;;;9.53;;
8568;SDS011;4322;51.104;-4.162;2023-02-15T08:49:30;10.13;;;9.63;;
8568;SDS011;4322;51.104;-4.162;2023-02-15T08:52:00;10.00;;;9.50;;
8568;SDS011;4322;51.104;-4.162;2023-02-15T08:54:28;9.40;;;9.00;;
8568;SDS011;4322;51.104;-4.162;2023-02-15T08:56:58;9.07;;;8.67;;
8568;SDS011;4322;51.104;-4.162;2023-02-15T08:59:26;9.77;;;9.27;;
8568;SDS011;4322;51.104;-4.162;2023-02-15T09:01:54;9.83;;;9.33;;
8568;SDS011;4322;51.104;-4.162;2023-02-15T09:04:24;9.53;;;9.07;;
8568;SDS011;4322;51.104;-4.162;2023-02-15T09:06:52;10.10;;;9.60;;
8568;SDS011;4322;51.104;-4.162;2023-02-15T09:09:21;10.57;;;10.07;;
8568;SDS011;4322;51.104;-4.162;2023-02-15T09:11:49;9.77;;;9.27;;
8568;SDS011;4322;51.104;-4.162;2023-02-15T09:14:24;10.10;;;9.60;;
8568;SDS011;4322;51.104;-4.162;2023-02-15T09:16:53;8.67;;;8.27;;
8568;SDS011;4322;51.104;-4.162;2023-02-15T09:19:21;9.27;;;8.87;;
8568;SDS011;4322;51.104;-4.162;2023-02-15T09:21:49;9.23;;;8.83;;
8568;SDS011;4322;51.104;-4.162;2023-02-15T09:24:18;9.07;;;8.67;;
8568;SDS011;4322;51.104;-4.162;2023-02-15T09:26:47;9.30;;;8.90;;
8568;SDS011;4322;51.104;-4.162;2023-02-15T09:29:16;9.00;;;8.60;;
8568;SDS011;4322;51.104;-4.162;2023-02-15T09:31:45;8.53;;;8.13;;
8568;SDS011;4322;51.104;-4.162;2023-02-15T09:34:14;8.73;;;8.33;;
8568;SDS011;4322;51.104;-4.162;2023-02-15T09:36:43;9.10;;;8.70;;
8568;SDS011;4322;51.104;-4.162;2023-02-15T09:39:11;9.10;;;8.70;;
8568;SDS011;4322;51.104;-4.162;2023-02-15T09:44:30;8.70;;;8.30;;
8568;SDS011;4322;51.104;-4.162;2023-02-15T09:47:08;9.37;;;8.97;;
8568;SDS011;4322;51.104;-4.162;2023-02-15T09:49:40;9.00;;;8.60;;
8568;SDS011;4322;51.104;-4.162;2023-02-15T09:52:17;8.83;;;8.43;;
8568;SDS011;4322;51.104;-4.162;2023-02-15T09:55:03;9.23;;;8.83;;
8568;SDS011;4322;51.104;-4.162;2023-02-15T09:57:36;9.63;;;9.13;;
8568;SDS011;4322;51.104;-4.162;2023-02-15T10:00:10;8.93;;;8.53;;
8568;SDS011;4322;51.104;-4.162;2023-02-15T10:02:59;8.53;;;8.13;;
8568;SDS011;4322;51.104;-4.162;2023-02-15T10:05:34;9.07;;;8.67;;
8568;SDS011;4322;51.104;-4.162;2023-02-15T10:08:12;8.80;;;8.40;;
8568;SDS011;4322;51.104;-4.162;2023-02-15T10:10:42;8.93;;;8.53;;
8568;SDS011;4322;51.104;-4.162;2023-02-15T10:13:16;9.27;;;8.87;;
8568;SDS011;4322;51.104;-4.162;2023-02-15T10:15:51;9.57;;;9.10;;
8568;SDS011;4322;51.104;-4.162;2023-02-15T10:18:25;9.23;;;8.83;;
8568;SDS011;4322;51.104;-4.162;2023-02-15T10:21:00;9.90;;;9.40;;
8568;SDS011;4322;51.104;-4.162;2023-02-15T10:23:36;9.30;;;8.90;;
8568;SDS011;4322;51.104;-4.162;2023-02-15T10:26:07;10.00;;;9.50;;
8568;SDS011;4322;51.104;-4.162;2023-02-15T10:28:42;9.30;;;8.90;;
8568;SDS011;4322;51.104;-4.162;2023-02-15T10:31:13;8.83;;;8.43;;
8568;SDS011;4322;51.104;-4.162;2023-02-15T10:33:44;8.73;;;8.33;;
8568;SDS011;4322;51.104;-4.162;2023-02-15T10:36:23;8.80;;;8.40;;
8568;SDS011;4322;51.104;-4.162;2023-02-15T10:39:02;8.63;;;8.23;;
8568;SDS011;4322;51.104;-4.162;2023-02-15T10:41:35;9.63;;;9.13;;
8568;SDS011;4322;51.104;-4.162;2023-02-15T10:44:09;8.57;;;8.17;;
8568;SDS011;4322;51.104;-4.162;2023-02-15T10:46:47;8.37;;;7.97;;
8568;SDS011;4322;51.104;-4.162;2023-02-15T10:49:26;9.37;;;8.97;;
8568;SDS011;4322;51.104;-4.162;2023-02-15T10:52:03;9.03;;;8.63;;
8568;SDS011;4322;51.104;-4.162;2023-02-15T10:54:41;9.53;;;9.07;;
8568;SDS011;4322;51.104;-4.162;2023-02-15T10:57:13;9.37;;;8.97;;
8568;SDS011;4322;51.104;-4.162;2023-02-15T10:59:50;8.97;;;8.57;;
8568;SDS011;4322;51.104;-4.162;2023-02-15T11:02:29;8.80;;;8.40;;
8568;SDS011;4322;51.104;-4.162;2023-02-15T11:05:07;8.17;;;7.77;;
8568;SDS011;4322;51.104;-4.162;2023-02-15T11:07:44;9.17;;;8.77;;
8568;SDS011;4322;51.104;-4.162;2023-02-15T11:10:22;8.73;;;8.33;;
8568;SDS011;4322;51.104;-4.162;2023-02-15T11:12:52;7.70;;;7.37;;
8568;SDS011;4322;51.104;-4.162;2023-02-15T11:15:24;8.47;;;8.07;;
8568;SDS011;4322;51.104;-4.162;2023-02-15T11:17:57;8.17;;;7.77;;
8568;SDS011;4322;51.104;-4.162;2023-02-15T11:20:28;7.20;;;6.90;;
8568;SDS011;4322;51.104;-4.162;2023-02-15T11:22:57;7.20;;;6.90;;
8568;SDS011;4322;51.104;-4.162;2023-02-15T11:25:28;8.00;;;7.60;;
8568;SDS011;4322;51.104;-4.162;2023-02-15T11:27:57;8.73;;;8.33;;
8568;SDS011;4322;51.104;-4.162;2023-02-15T11:30:27;7.90;;;7.50;;
8568;SDS011;4322;51.104;-4.162;2023-02-15T11:32:59;7.07;;;6.77;;
8568;SDS011;4322;51.104;-4.162;2023-02-15T11:35:32;7.20;;;6.90;;
8568;SDS011;4322;51.104;-4.162;2023-02-15T11:38:02;8.00;;;7.60;;
8568;SDS011;4322;51.104;-4.162;2023-02-15T11:40:32;7.70;;;7.33;;
8568;SDS011;4322;51.104;-4.162;2023-02-15T11:43:04;7.20;;;6.90;;
8568;SDS011;4322;51.104;-4.162;2023-02-15T11:45:33;7.53;;;7.23;;
8568;SDS011;4322;51.104;-4.162;2023-02-15T11:48:07;7.47;;;7.17;;
8568;SDS011;4322;51.104;-4.162;2023-02-15T11:50:36;17.60;;;16.70;;
8568;SDS011;4322;51.104;-4.162;2023-02-15T11:53:05;14.63;;;13.93;;
8568;SDS011;4322;51.104;-4.162;2023-02-15T11:55:34;17.80;;;16.90;;
8568;SDS011;4322;51.104;-4.162;2023-02-15T11:58:03;20.50;;;19.50;;
8568;SDS011;4322;51.104;-4.162;2023-02-15T12:00:35;24.17;;;22.90;;
8568;SDS011;4322;51.104;-4.162;2023-02-15T12:03:11;25.43;;;24.13;;
8568;SDS011;4322;51.104;-4.162;2023-02-15T12:05:44;23.13;;;21.93;;
8568;SDS011;4322;51.104;-4.162;2023-02-15T12:08:16;23.23;;;22.03;;
8568;SDS011;4322;51.104;-4.162;2023-02-15T12:10:50;22.53;;;21.37;;
8568;SDS011;4322;51.104;-4.162;2023-02-15T12:13:20;23.63;;;22.43;;
8568;SDS011;4322;51.104;-4.162;2023-02-15T12:15:49;24.80;;;23.50;;
8568;SDS011;4322;51.104;-4.162;2023-02-15T12:18:21;23.50;;;22.30;;
8568;SDS011;4322;51.104;-4.162;2023-02-15T12:20:52;25.50;;;24.20;;
8568;SDS011;4322;51.104;-4.162;2023-02-15T12:23:26;22.57;;;21.37;;
8568;SDS011;4322;51.104;-4.162;2023-02-15T12:25:55;22.67;;;21.47;;
8568;SDS011;4322;51.104;-4.162;2023-02-15T12:28:25;23.37;;;22.17;;
8568;SDS011;4322;51.104;-4.162;2023-02-15T12:30:54;23.90;;;22.70;;
8568;SDS011;4322;51.104;-4.162;2023-02-15T12:33:27;22.70;;;21.50;;
8568;SDS011;4322;51.104;-4.162;2023-02-15T12:35:59;23.07;;;21.87;;
8568;SDS011;4322;51.104;-4.162;2023-02-15T12:38:28;21.13;;;20.03;;
8568;SDS011;4322;51.104;-4.162;2023-02-15T12:40:57;21.50;;;20.40;;
8568;SDS011;4322;51.104;-4.162;2023-02-15T12:43:31;22.37;;;21.17;;
8568;SDS011;4322;51.104;-4.162;2023-02-15T12:46:20;21.10;;;20.00;;
8568;SDS011;4322;51.104;-4.162;2023-02-15T12:49:04;20.13;;;19.13;;
8568;SDS011;4322;51.104;-4.162;2023-02-15T12:51:44;21.27;;;20.17;;
8568;SDS011;4322;51.104;-4.162;2023-02-15T12:54:16;20.43;;;19.37;;
8568;SDS011;4322;51.104;-4.162;2023-02-15T12:56:49;19.33;;;18.33;;
8568;SDS011;4322;51.104;-4.162;2023-02-15T12:59:16;19.13;;;18.13;;
8568;SDS011;4322;51.104;-4.162;2023-02-15T13:01:48;18.17;;;17.27;;
8568;SDS011;4322;51.104;-4.162;2023-02-15T13:04:21;19.60;;;18.60;;
8568;SDS011;4322;51.104;-4.162;2023-02-15T13:06:50;20.33;;;19.33;;
8568;SDS011;4322;51.104;-4.162;2023-02-15T13:09:24;20.23;;;19.23;;
8568;SDS011;4322;51.104;-4.162;2023-02-15T13:11:54;19.40;;;18.40;;
8568;SDS011;4322;51.104;-4.162;2023-02-15T13:14:25;19.30;;;18.30;;
8568;SDS011;4322;51.104;-4.162;2023-02-15T13:16:56;21.70;;;20.60;;
8568;SDS011;4322;51.104;-4.162;2023-02-15T13:19:31;21.10;;;20.00;;
8568;SDS011;4322;51.104;-4.162;2023-02-15T13:22:01;21.43;;;20.33;;
8568;SDS011;4322;51.104;-4.162;2023-02-15T13:24:32;19.07;;;18.07;;
8568;SDS011;4322;51.104;-4.162;2023-02-15T13:27:00;21.00;;;19.90;;
8568;SDS011;4322;51.104;-4.162;2023-02-15T13:29:42;22.40;;;21.20;;
8568;SDS011;4322;51.104;-4.162;2023-02-15T13:32:12;21.10;;;20.00;;
8568;SDS011;4322;51.104;-4.162;2023-02-15T13:34:41;21.40;;;20.30;;
8568;SDS011;4322;51.104;-4.162;2023-02-15T13:37:12;20.57;;;19.47;;
8568;SDS011;4322;51.104;-4.162;2023-02-15T13:39:44;20.70;;;19.60;;
8568;SDS011;4322;51.104;-4.162;2023-02-15T13:42:18;19.87;;;18.87;;
8568;SDS011;4322;51.104;-4.162;2023-02-15T13:44:56;19.53;;;18.53;;
8568;SDS011;4322;51.104;-4.162;2023-02-15T13:47:29;18.33;;;17.43;;
8568;SDS011;4322;51.104;-4.162;2023-02-15T13:50:05;20.40;;;19.33;;
8568;SDS011;4322;51.104;-4.162;2023-02-15T13:52:38;20.07;;;19.03;;
8568;SDS011;4322;51.104;-4.162;2023-02-15T13:55:14;19.87;;;18.87;;
8568;SDS011;4322;51.104;-4.162;2023-02-15T13:57:58;17.37;;;16.47;;
8568;SDS011;4322;51.104;-4.162;2023-02-15T14:00:29;14.10;;;13.40;;
8568;SDS011;4322;51.104;-4.162;2023-02-15T14:03:10;12.07;;;11.47;;
8568;SDS011;4322;51.104;-4.162;2023-02-15T14:05:53;10.93;;;10.43;;
8568;SDS011;4322;51.104;-4.162;2023-02-15T14:08:25;10.23;;;9.73;;
8568;SDS011;4322;51.104;-4.162;2023-02-15T14:10:57;12.33;;;11.73;;
8568;SDS011;4322;51.104;-4.162;2023-02-15T14:13:43;11.77;;;11.17;;
8568;SDS011;4322;51.104;-4.162;2023-02-15T14:16:15;13.83;;;13.13;;
8568;SDS011;4322;51.104;-4.162;2023-02-15T14:18:46;10.17;;;9.67;;
8568;SDS011;4322;51.104;-4.162;2023-02-15T14:21:18;9.70;;;9.20;;
8568;SDS011;4322;51.104;-4.162;2023-02-15T14:23:51;9.77;;;9.27;;
8568;SDS011;4322;51.104;-4.162;2023-02-15T14:26:21;6.63;;;6.33;;
8568;SDS011;4322;51.104;-4.162;2023-02-15T14:28:55;6.60;;;6.30;;
8568;SDS011;4322;51.104;-4.162;2023-02-15T14:31:27;5.30;;;5.10;;
8568;SDS011;4322;51.104;-4.162;2023-02-15T14:33:57;5.50;;;5.30;;
8568;SDS011;4322;51.104;-4.162;2023-02-15T14:36:26;6.00;;;5.70;;
8568;SDS011;4322;51.104;-4.162;2023-02-15T14:38:59;6.40;;;6.10;;
8568;SDS011;4322;51.104;-4.162;2023-02-15T14:41:35;5.70;;;5.50;;
8568;SDS011;4322;51.104;-4.162;2023-02-15T14:44:06;6.13;;;5.83;;
8568;SDS011;4322;51.104;-4.162;2023-02-15T14:46:41;4.97;;;4.77;;
8568;SDS011;4322;51.104;-4.162;2023-02-15T14:49:10;4.83;;;4.63;;
8568;SDS011;4322;51.104;-4.162;2023-02-15T14:51:56;5.20;;;5.00;;
8568;SDS011;4322;51.104;-4.162;2023-02-15T14:57:22;6.40;;;6.10;;
8568;SDS011;4322;51.104;-4.162;2023-02-15T14:59:50;7.10;;;6.80;;
8568;SDS011;4322;51.104;-4.162;2023-02-15T15:02:24;6.90;;;6.60;;
8568;SDS011;4322;51.104;-4.162;2023-02-15T15:04:56;6.77;;;6.47;;
8568;SDS011;4322;51.104;-4.162;2023-02-15T15:07:26;7.10;;;6.80;;
8568;SDS011;4322;51.104;-4.162;2023-02-15T15:09:58;7.97;;;7.57;;
8568;SDS011;4322;51.104;-4.162;2023-02-15T15:12:37;7.20;;;6.90;;
8568;SDS011;4322;51.104;-4.162;2023-02-15T15:15:06;7.83;;;7.43;;
8568;SDS011;4322;51.104;-4.162;2023-02-15T15:17:57;8.53;;;8.13;;
8568;SDS011;4322;51.104;-4.162;2023-02-15T15:20:37;7.87;;;7.47;;